East Pine, Canada
Current Conditions -  °F | °C
As of 7:00 PM on Monday 20 Oct 2014 (Local Time) from CYCQ Reporting Station
Few Clouds Few Clouds  
Wind Chill: 50°   Ceiling: Unl
Heat Index: 50°   Visibility: 35mi
Dew Point: 37°   Wind: 8mph
Humidity: 62%   Direction: 220°SW
Pressure: 29.5"   Gusts: NA
Location:  55.72°N, 121.18°W
Report Text: CYCQ 210100Z 22007KT 35SM FEW055 FEW070 10/03 A2950 RMK SC1AC1 LAST OBS/NEXT 211300Z SLP001 DENSITY ALT 2300FT
Loading
Personal Weather Stations






























Interactive Weather Map
Tropical Storm Tracking
New forecast layout! Learn more

10-Day Weather Forecast

Advertisements
Track Severe Weather on mobile